Holland, MI

6:02 AM EDT on July 05, 2015 (GMT -0400)
East Saugatuck | | Change Station
CLOSE
Current Station
Personal Weather Station
Location: Holland, MI
Elevation: 705 ft
Nearby Weather Stations

Elev 705 ft 42.70 °N, 86.10 °W | Updated 13 seconds ago

Clear
Clear
56.8 °F
Feels Like 56.8 °F
N
0.0
Wind Variable Wind from SSW
Gusts 0.0 mph

Today
High -- | Low -- °F
--% Chance of Precip.
Yesterday
High -- | Low -- °F
Precip. -- in
6:12 AM 9:25 PM
Waning Gibbous, 86% visible
Pressure 30.08 in
Visibility 4.0 miles
Clouds Clear
Dew Point 57 °F
Humidity 99%
Rainfall 0.00 in
Snow Depth Not available.
UV 0 out of 12
Pollen 4.70 out of 12
Air Quality Not available.
Flu Activity Not available.
METAR KBIV 050953Z AUTO 10003KT 4SM BR CLR 14/13 A3008 RMK AO2 SLP185 T01390128

More Conditions Fewer Conditions

Pressure 30.08 in
Visibility 4.0 miles
Clouds Clear
Dew Point 57 °F
Humidity 99%
Rainfall 0.00 in
Snow Depth Not available.
UV 0 out of 12
Pollen 4.70 out of 12
Air Quality Not available.
Flu Activity Not available.
METAR KBIV 050953Z AUTO 10003KT 4SM BR CLR 14/13 A3008 RMK AO2 SLP185 T01390128

More Conditions Fewer Conditions

10-Day Weather Forecast

×

Almanac

Astronomy

Jul. 05, 2015 Rise Set
Actual Time
Civil Twilight
Nautical Twilight
Astronomical Twilight
Moon
Length of Visible Light
Length of Day
Tomorrow will be .
, % of the Moon is Illuminated

Today's Extremes

State Highs State Lows

Community

WunderPhotos

Upload Photos

1,835,218 photos uploaded!

WunderBlogs® & News

Nearby

Air Quality

  Air Quality AQ Index Pollutant
Not available.

Snow Depth

Station Depth Elevation

Earthquake Activity

City Distance Mag. Time & Date
Minimum magnitude displayed is 2.5.

Coastal Water Temperatures

Place Temperature

Stations

Nearby Weather Stations

Station Location Temp. Windchill Dew Point Humidity Wind Precip. Elev Updated Type